sensor_id;sensor_type;location;lat;lon;timestamp;pressure;altitude;pressure_sealevel;temperature;humidity
12247;BME280;6186;52.022;4.692;2023-09-19T00:00:44;100770.16;;;15.84;100.00
12247;BME280;6186;52.022;4.692;2023-09-19T00:03:10;100780.84;;;15.83;100.00
12247;BME280;6186;52.022;4.692;2023-09-19T00:05:36;100777.13;;;15.87;100.00
12247;BME280;6186;52.022;4.692;2023-09-19T00:08:02;100772.91;;;15.83;100.00
12247;BME280;6186;52.022;4.692;2023-09-19T00:10:28;100785.88;;;15.89;100.00
12247;BME280;6186;52.022;4.692;2023-09-19T00:12:53;100789.31;;;15.91;100.00
12247;BME280;6186;52.022;4.692;2023-09-19T00:15:19;100794.47;;;15.94;100.00
12247;BME280;6186;52.022;4.692;2023-09-19T00:17:44;100789.16;;;15.94;100.00
12247;BME280;6186;52.022;4.692;2023-09-19T00:20:10;100790.03;;;15.94;100.00
12247;BME280;6186;52.022;4.692;2023-09-19T00:22:39;100797.06;;;15.95;100.00
12247;BME280;6186;52.022;4.692;2023-09-19T00:25:04;100792.78;;;15.93;100.00
12247;BME280;6186;52.022;4.692;2023-09-19T00:27:30;100799.78;;;15.94;100.00
12247;BME280;6186;52.022;4.692;2023-09-19T00:29:55;100800.66;;;15.94;100.00
12247;BME280;6186;52.022;4.692;2023-09-19T00:32:20;100802.44;;;15.94;100.00
12247;BME280;6186;52.022;4.692;2023-09-19T00:34:45;100797.22;;;15.92;100.00
12247;BME280;6186;52.022;4.692;2023-09-19T00:37:10;100799.00;;;15.92;100.00
12247;BME280;6186;52.022;4.692;2023-09-19T00:39:36;100800.88;;;15.90;100.00
12247;BME280;6186;52.022;4.692;2023-09-19T00:42:01;100796.41;;;15.90;100.00
12247;BME280;6186;52.022;4.692;2023-09-19T00:44:26;100794.72;;;15.89;100.00
12247;BME280;6186;52.022;4.692;2023-09-19T00:46:52;100798.38;;;15.87;100.00
12247;BME280;6186;52.022;4.692;2023-09-19T00:49:18;100801.03;;;15.87;100.00
12247;BME280;6186;52.022;4.692;2023-09-19T00:51:43;100804.66;;;15.84;100.00
12247;BME280;6186;52.022;4.692;2023-09-19T00:54:08;100804.75;;;15.83;100.00
12247;BME280;6186;52.022;4.692;2023-09-19T00:56:34;100810.22;;;15.80;100.00
12247;BME280;6186;52.022;4.692;2023-09-19T00:58:59;100806.78;;;15.78;100.00
12247;BME280;6186;52.022;4.692;2023-09-19T01:01:25;100813.94;;;15.76;100.00
12247;BME280;6186;52.022;4.692;2023-09-19T01:03:50;100821.19;;;15.72;100.00
12247;BME280;6186;52.022;4.692;2023-09-19T01:06:15;100821.31;;;15.69;100.00
12247;BME280;6186;52.022;4.692;2023-09-19T01:08:41;100820.59;;;15.66;100.00
12247;BME280;6186;52.022;4.692;2023-09-19T01:11:16;100817.06;;;15.65;100.00
12247;BME280;6186;52.022;4.692;2023-09-19T01:13:51;100826.91;;;15.63;100.00
12247;BME280;6186;52.022;4.692;2023-09-19T01:16:32;100827.06;;;15.60;100.00
12247;BME280;6186;52.022;4.692;2023-09-19T01:19:15;100824.47;;;15.59;100.00
12247;BME280;6186;52.022;4.692;2023-09-19T01:21:57;100820.16;;;15.56;100.00
12247;BME280;6186;52.022;4.692;2023-09-19T01:29:48;100822.75;;;15.58;100.00
12247;BME280;6186;52.022;4.692;2023-09-19T01:32:17;100813.88;;;15.59;100.00
12247;BME280;6186;52.022;4.692;2023-09-19T01:34:56;100822.63;;;15.61;100.00
12247;BME280;6186;52.022;4.692;2023-09-19T01:37:21;100818.22;;;15.60;100.00
12247;BME280;6186;52.022;4.692;2023-09-19T01:39:50;100832.81;;;15.70;100.00
12247;BME280;6186;52.022;4.692;2023-09-19T01:42:42;100831.66;;;15.75;100.00
12247;BME280;6186;52.022;4.692;2023-09-19T01:45:13;100826.13;;;15.80;100.00
12247;BME280;6186;52.022;4.692;2023-09-19T01:47:46;100829.44;;;15.85;100.00
12247;BME280;6186;52.022;4.692;2023-09-19T01:50:21;100831.00;;;15.89;100.00
12247;BME280;6186;52.022;4.692;2023-09-19T01:53:01;100822.88;;;15.92;100.00
12247;BME280;6186;52.022;4.692;2023-09-19T01:55:29;100829.94;;;15.93;100.00
12247;BME280;6186;52.022;4.692;2023-09-19T01:58:01;100829.06;;;15.92;100.00
12247;BME280;6186;52.022;4.692;2023-09-19T02:00:32;100830.94;;;15.90;100.00
12247;BME280;6186;52.022;4.692;2023-09-19T02:02:59;100835.38;;;15.90;100.00
12247;BME280;6186;52.022;4.692;2023-09-19T02:05:25;100829.28;;;15.88;100.00
12247;BME280;6186;52.022;4.692;2023-09-19T02:07:51;100831.22;;;15.84;100.00
12247;BME280;6186;52.022;4.692;2023-09-19T02:10:17;100836.59;;;15.83;100.00
12247;BME280;6186;52.022;4.692;2023-09-19T02:12:42;100829.59;;;15.82;100.00
12247;BME280;6186;52.022;4.692;2023-09-19T02:15:08;100829.59;;;15.82;100.00
12247;BME280;6186;52.022;4.692;2023-09-19T02:17:33;100843.84;;;15.79;100.00
12247;BME280;6186;52.022;4.692;2023-09-19T02:19:58;100831.50;;;15.78;100.00
12247;BME280;6186;52.022;4.692;2023-09-19T02:22:23;100828.09;;;15.76;100.00
12247;BME280;6186;52.022;4.692;2023-09-19T02:24:49;100831.72;;;15.74;100.00
12247;BME280;6186;52.022;4.692;2023-09-19T02:27:14;100837.94;;;15.73;100.00
12247;BME280;6186;52.022;4.692;2023-09-19T02:29:39;100831.94;;;15.69;100.00
12247;BME280;6186;52.022;4.692;2023-09-19T02:32:04;100841.66;;;15.69;100.00
12247;BME280;6186;52.022;4.692;2023-09-19T02:34:30;100834.75;;;15.66;100.00
12247;BME280;6186;52.022;4.692;2023-09-19T02:36:55;100839.09;;;15.67;100.00
12247;BME280;6186;52.022;4.692;2023-09-19T02:39:20;100841.66;;;15.69;100.00
12247;BME280;6186;52.022;4.692;2023-09-19T02:41:45;100839.97;;;15.68;100.00
12247;BME280;6186;52.022;4.692;2023-09-19T02:44:10;100846.22;;;15.67;100.00
12247;BME280;6186;52.022;4.692;2023-09-19T02:46:36;100844.41;;;15.67;100.00
12247;BME280;6186;52.022;4.692;2023-09-19T02:49:02;100843.63;;;15.65;100.00
12247;BME280;6186;52.022;4.692;2023-09-19T02:51:27;100840.91;;;15.67;100.00
12247;BME280;6186;52.022;4.692;2023-09-19T02:53:52;100834.66;;;15.68;100.00
12247;BME280;6186;52.022;4.692;2023-09-19T02:56:18;100830.16;;;15.70;100.00
12247;BME280;6186;52.022;4.692;2023-09-19T02:58:43;100832.81;;;15.70;100.00
12247;BME280;6186;52.022;4.692;2023-09-19T03:01:12;100832.81;;;15.70;100.00
12247;BME280;6186;52.022;4.692;2023-09-19T03:03:37;100834.50;;;15.71;100.00
12247;BME280;6186;52.022;4.692;2023-09-19T03:06:03;100841.56;;;15.72;100.00
12247;BME280;6186;52.022;4.692;2023-09-19T03:08:28;100845.00;;;15.74;100.00
12247;BME280;6186;52.022;4.692;2023-09-19T03:10:53;100840.47;;;15.76;100.00
12247;BME280;6186;52.022;4.692;2023-09-19T03:13:19;100844.84;;;15.77;100.00
12247;BME280;6186;52.022;4.692;2023-09-19T03:15:44;100845.78;;;15.76;100.00
12247;BME280;6186;52.022;4.692;2023-09-19T03:18:09;100845.00;;;15.74;100.00
12247;BME280;6186;52.022;4.692;2023-09-19T03:20:34;100847.66;;;15.74;100.00
12247;BME280;6186;52.022;4.692;2023-09-19T03:22:59;100841.41;;;15.75;100.00
12247;BME280;6186;52.022;4.692;2023-09-19T03:25:25;100844.06;;;15.75;100.00
12247;BME280;6186;52.022;4.692;2023-09-19T03:27:50;100844.13;;;15.73;100.00
12247;BME280;6186;52.022;4.692;2023-09-19T03:30:15;100844.00;;;15.76;100.00
12247;BME280;6186;52.022;4.692;2023-09-19T03:32:47;100841.41;;;15.75;100.00
12247;BME280;6186;52.022;4.692;2023-09-19T03:35:13;100825.91;;;15.66;100.00
12247;BME280;6186;52.022;4.692;2023-09-19T03:37:38;100830.16;;;15.70;100.00
12247;BME280;6186;52.022;4.692;2023-09-19T03:40:04;100832.88;;;15.68;100.00
12247;BME280;6186;52.022;4.692;2023-09-19T03:42:29;100840.91;;;15.67;100.00
12247;BME280;6186;52.022;4.692;2023-09-19T03:44:54;100820.03;;;15.59;100.00
12247;BME280;6186;52.022;4.692;2023-09-19T03:47:19;100838.53;;;15.61;100.00
12247;BME280;6186;52.022;4.692;2023-09-19T03:49:45;100851.09;;;15.57;100.00
12247;BME280;6186;52.022;4.692;2023-09-19T03:52:10;100827.03;;;15.42;100.00
12247;BME280;6186;52.022;4.692;2023-09-19T03:54:35;100849.63;;;15.50;100.00
12247;BME280;6186;52.022;4.692;2023-09-19T03:57:00;100850.69;;;15.46;100.00
12247;BME280;6186;52.022;4.692;2023-09-19T03:59:25;100857.00;;;15.44;100.00
12247;BME280;6186;52.022;4.692;2023-09-19T04:01:51;100860.69;;;15.40;100.00
12247;BME280;6186;52.022;4.692;2023-09-19T04:04:16;100863.34;;;15.40;100.00
12247;BME280;6186;52.022;4.692;2023-09-19T04:06:41;100861.59;;;15.39;100.00
12247;BME280;6186;52.022;4.692;2023-09-19T04:09:06;100862.53;;;15.38;100.00
12247;BME280;6186;52.022;4.692;2023-09-19T04:11:32;100875.00;;;15.36;100.00
12247;BME280;6186;52.022;4.692;2023-09-19T04:13:58;100879.38;;;15.37;100.00
12247;BME280;6186;52.022;4.692;2023-09-19T04:16:23;100884.75;;;15.35;100.00
12247;BME280;6186;52.022;4.692;2023-09-19T04:18:48;100882.16;;;15.34;100.00
12247;BME280;6186;52.022;4.692;2023-09-19T04:21:13;100882.16;;;15.34;100.00
12247;BME280;6186;52.022;4.692;2023-09-19T04:23:39;100876.88;;;15.34;100.00
12247;BME280;6186;52.022;4.692;2023-09-19T04:26:04;100883.03;;;15.34;100.00
12247;BME280;6186;52.022;4.692;2023-09-19T04:28:29;100893.72;;;15.33;100.00
12247;BME280;6186;52.022;4.692;2023-09-19T04:30:54;100890.19;;;15.32;100.00
12247;BME280;6186;52.022;4.692;2023-09-19T04:33:19;100885.88;;;15.30;100.00
12247;BME280;6186;52.022;4.692;2023-09-19T04:35:45;100886.81;;;15.29;100.00
12247;BME280;6186;52.022;4.692;2023-09-19T04:38:10;100883.44;;;15.25;100.00
12247;BME280;6186;52.022;4.692;2023-09-19T04:40:35;100882.59;;;15.25;100.00
12247;BME280;6186;52.022;4.692;2023-09-19T04:43:00;100895.69;;;15.28;100.00
12247;BME280;6186;52.022;4.692;2023-09-19T04:45:26;100896.63;;;15.27;100.00
12247;BME280;6186;52.022;4.692;2023-09-19T04:47:52;100897.56;;;15.26;100.00
12247;BME280;6186;52.022;4.692;2023-09-19T04:50:18;100891.41;;;15.25;100.00
12247;BME280;6186;52.022;4.692;2023-09-19T04:52:44;100890.63;;;15.23;100.00
12247;BME280;6186;52.022;4.692;2023-09-19T04:55:13;100886.16;;;15.24;100.00
12247;BME280;6186;52.022;4.692;2023-09-19T04:57:39;100892.06;;;15.30;100.00
12247;BME280;6186;52.022;4.692;2023-09-19T05:00:04;100896.38;;;15.33;100.00
12247;BME280;6186;52.022;4.692;2023-09-19T05:02:30;100898.09;;;15.34;100.00
12247;BME280;6186;52.022;4.692;2023-09-19T05:04:55;100889.22;;;15.35;100.00
12247;BME280;6186;52.022;4.692;2023-09-19T05:07:20;100910.44;;;15.35;100.00
12247;BME280;6186;52.022;4.692;2023-09-19T05:09:45;100914.81;;;15.36;100.00
12247;BME280;6186;52.022;4.692;2023-09-19T05:12:11;100905.97;;;15.35;100.00
12247;BME280;6186;52.022;4.692;2023-09-19T05:14:36;100901.72;;;15.31;100.00
12247;BME280;6186;52.022;4.692;2023-09-19T05:17:01;100903.31;;;15.35;100.00
12247;BME280;6186;52.022;4.692;2023-09-19T05:19:26;100902.41;;;15.36;100.00
12247;BME280;6186;52.022;4.692;2023-09-19T05:21:51;100902.41;;;15.36;100.00
12247;BME280;6186;52.022;4.692;2023-09-19T05:24:17;100880.81;;;15.25;100.00
12247;BME280;6186;52.022;4.692;2023-09-19T05:26:42;100891.88;;;15.35;100.00
12247;BME280;6186;52.022;4.692;2023-09-19T05:29:07;100890.94;;;15.36;100.00
12247;BME280;6186;52.022;4.692;2023-09-19T05:31:32;100890.94;;;15.36;100.00
12247;BME280;6186;52.022;4.692;2023-09-19T05:33:57;100891.81;;;15.36;100.00
12247;BME280;6186;52.022;4.692;2023-09-19T05:36:22;100897.09;;;15.36;100.00
12247;BME280;6186;52.022;4.692;2023-09-19T05:38:48;100889.97;;;15.37;100.00
12247;BME280;6186;52.022;4.692;2023-09-19T05:41:13;100894.44;;;15.36;100.00
12247;BME280;6186;52.022;4.692;2023-09-19T05:43:38;100896.22;;;15.36;100.00
12247;BME280;6186;52.022;4.692;2023-09-19T05:46:03;100900.75;;;15.34;100.00
12247;BME280;6186;52.022;4.692;2023-09-19T05:48:29;100908.63;;;15.35;100.00
12247;BME280;6186;52.022;4.692;2023-09-19T05:50:54;100913.00;;;15.36;100.00
12247;BME280;6186;52.022;4.692;2023-09-19T05:53:19;100909.50;;;15.36;100.00
12247;BME280;6186;52.022;4.692;2023-09-19T05:55:44;100917.44;;;15.36;100.00
12247;BME280;6186;52.022;4.692;2023-09-19T05:58:09;100918.31;;;15.36;100.00
12247;BME280;6186;52.022;4.692;2023-09-19T06:00:35;100913.09;;;15.35;100.00
12247;BME280;6186;52.022;4.692;2023-09-19T06:03:00;100912.88;;;15.39;100.00
12247;BME280;6186;52.022;4.692;2023-09-19T06:05:27;100919.03;;;15.40;100.00
12247;BME280;6186;52.022;4.692;2023-09-19T06:07:53;100918.09;;;15.41;100.00
12247;BME280;6186;52.022;4.692;2023-09-19T06:10:18;100930.41;;;15.43;100.00
12247;BME280;6186;52.022;4.692;2023-09-19T06:12:44;100925.84;;;15.47;100.00
12247;BME280;6186;52.022;4.692;2023-09-19T06:15:10;100919.72;;;15.45;100.00
12247;BME280;6186;52.022;4.692;2023-09-19T06:17:36;100926.84;;;15.44;100.00
12247;BME280;6186;52.022;4.692;2023-09-19T06:20:01;100922.91;;;15.53;100.00
12247;BME280;6186;52.022;4.692;2023-09-19T06:22:26;100925.41;;;15.56;100.00
12247;BME280;6186;52.022;4.692;2023-09-19T06:24:51;100923.63;;;15.56;100.00
12247;BME280;6186;52.022;4.692;2023-09-19T06:27:17;100928.88;;;15.58;100.00
12247;BME280;6186;52.022;4.692;2023-09-19T06:29:42;100923.44;;;15.61;100.00
12247;BME280;6186;52.022;4.692;2023-09-19T06:32:08;100925.16;;;15.62;100.00
12247;BME280;6186;52.022;4.692;2023-09-19T06:34:33;100923.28;;;15.64;100.00
12247;BME280;6186;52.022;4.692;2023-09-19T06:36:58;100920.56;;;15.65;100.00
12247;BME280;6186;52.022;4.692;2023-09-19T06:39:23;100922.38;;;15.65;100.00
12247;BME280;6186;52.022;4.692;2023-09-19T06:41:49;100926.81;;;15.64;100.00
12247;BME280;6186;52.022;4.692;2023-09-19T06:44:14;100937.09;;;15.72;100.00
12247;BME280;6186;52.022;4.692;2023-09-19T06:46:39;100944.97;;;15.73;100.00
12247;BME280;6186;52.022;4.692;2023-09-19T06:49:05;100936.03;;;15.76;100.00
12247;BME280;6186;52.022;4.692;2023-09-19T06:51:30;100943.84;;;15.79;100.00
12247;BME280;6186;52.022;4.692;2023-09-19T06:53:55;100933.16;;;15.80;100.00
12247;BME280;6186;52.022;4.692;2023-09-19T06:56:20;100938.41;;;15.82;100.00
12247;BME280;6186;52.022;4.692;2023-09-19T06:58:45;100934.97;;;15.80;100.00
12247;BME280;6186;52.022;4.692;2023-09-19T07:01:11;100943.50;;;15.86;100.00
12247;BME280;6186;52.022;4.692;2023-09-19T07:03:36;100942.50;;;15.89;100.00
12247;BME280;6186;52.022;4.692;2023-09-19T07:06:01;100938.00;;;15.91;100.00
12247;BME280;6186;52.022;4.692;2023-09-19T07:08:26;100935.41;;;15.89;100.00
12247;BME280;6186;52.022;4.692;2023-09-19T07:10:51;100939.59;;;15.95;100.00
12247;BME280;6186;52.022;4.692;2023-09-19T07:13:17;100945.69;;;15.97;100.00
12247;BME280;6186;52.022;4.692;2023-09-19T07:15:43;100942.00;;;15.99;100.00
12247;BME280;6186;52.022;4.692;2023-09-19T07:18:08;100943.66;;;16.02;100.00
12247;BME280;6186;52.022;4.692;2023-09-19T07:20:33;100946.13;;;16.07;100.00
12247;BME280;6186;52.022;4.692;2023-09-19T07:22:59;100954.81;;;16.10;100.00
12247;BME280;6186;52.022;4.692;2023-09-19T07:25:24;100950.22;;;16.14;100.00
12247;BME280;6186;52.022;4.692;2023-09-19T07:27:49;100951.81;;;16.18;100.00
12247;BME280;6186;52.022;4.692;2023-09-19T07:30:14;100938.28;;;16.22;100.00
12247;BME280;6186;52.022;4.692;2023-09-19T07:32:40;100944.28;;;16.27;100.00
12247;BME280;6186;52.022;4.692;2023-09-19T07:35:05;100951.16;;;16.31;100.00
12247;BME280;6186;52.022;4.692;2023-09-19T07:37:31;100952.78;;;16.34;100.00
12247;BME280;6186;52.022;4.692;2023-09-19T07:39:56;100954.16;;;16.42;100.00
12247;BME280;6186;52.022;4.692;2023-09-19T07:42:22;100954.00;;;16.45;100.00
12247;BME280;6186;52.022;4.692;2023-09-19T07:44:47;100958.28;;;16.49;100.00
12247;BME280;6186;52.022;4.692;2023-09-19T07:47:13;100954.56;;;16.53;100.00
12247;BME280;6186;52.022;4.692;2023-09-19T07:49:39;100949.16;;;16.55;100.00
12247;BME280;6186;52.022;4.692;2023-09-19T07:52:04;100955.34;;;16.55;100.00
12247;BME280;6186;52.022;4.692;2023-09-19T07:54:29;100952.44;;;16.60;100.00
12247;BME280;6186;52.022;4.692;2023-09-19T07:56:55;100961.91;;;16.65;100.00
12247;BME280;6186;52.022;4.692;2023-09-19T07:59:20;100958.19;;;16.69;100.00
12247;BME280;6186;52.022;4.692;2023-09-19T08:01:45;100949.91;;;16.75;100.00
12247;BME280;6186;52.022;4.692;2023-09-19T08:04:10;100945.25;;;16.80;100.00
12247;BME280;6186;52.022;4.692;2023-09-19T08:06:35;100947.44;;;16.89;100.00
12247;BME280;6186;52.022;4.692;2023-09-19T08:09:01;100951.53;;;16.97;100.00
12247;BME280;6186;52.022;4.692;2023-09-19T08:11:26;100947.69;;;17.02;100.00
12247;BME280;6186;52.022;4.692;2023-09-19T08:13:51;100934.97;;;17.09;100.00
12247;BME280;6186;52.022;4.692;2023-09-19T08:16:16;100945.28;;;17.15;100.00
12247;BME280;6186;52.022;4.692;2023-09-19T08:18:42;100952.09;;;17.20;100.00
12247;BME280;6186;52.022;4.692;2023-09-19T08:21:07;100936.97;;;17.21;100.00
12247;BME280;6186;52.022;4.692;2023-09-19T08:23:32;100944.66;;;17.27;100.00
12247;BME280;6186;52.022;4.692;2023-09-19T08:25:58;100948.91;;;17.31;100.00
12247;BME280;6186;52.022;4.692;2023-09-19T08:28:23;100929.09;;;17.36;100.00
12247;BME280;6186;52.022;4.692;2023-09-19T08:30:48;100931.25;;;17.45;100.00
12247;BME280;6186;52.022;4.692;2023-09-19T08:33:13;100929.41;;;17.64;100.00
12247;BME280;6186;52.022;4.692;2023-09-19T08:35:38;100949.66;;;17.84;100.00
12247;BME280;6186;52.022;4.692;2023-09-19T08:38:04;100935.84;;;17.93;100.00
12247;BME280;6186;52.022;4.692;2023-09-19T08:40:32;100929.56;;;17.94;100.00
12247;BME280;6186;52.022;4.692;2023-09-19T08:42:58;100942.28;;;17.89;100.00
12247;BME280;6186;52.022;4.692;2023-09-19T08:45:24;100934.47;;;17.86;100.00
12247;BME280;6186;52.022;4.692;2023-09-19T08:50:27;100930.63;;;17.74;100.00
12247;BME280;6186;52.022;4.692;2023-09-19T08:52:55;100931.06;;;17.67;100.00
12247;BME280;6186;52.022;4.692;2023-09-19T08:55:23;100915.41;;;17.61;100.00
12247;BME280;6186;52.022;4.692;2023-09-19T08:57:52;100936.91;;;17.56;100.00
12247;BME280;6186;52.022;4.692;2023-09-19T09:00:23;100932.47;;;17.57;100.00
12247;BME280;6186;52.022;4.692;2023-09-19T09:02:49;100924.34;;;17.60;100.00
12247;BME280;6186;52.022;4.692;2023-09-19T09:05:16;100926.81;;;17.63;100.00
12247;BME280;6186;52.022;4.692;2023-09-19T09:07:42;100928.69;;;17.61;100.00
12247;BME280;6186;52.022;4.692;2023-09-19T09:10:08;100917.28;;;17.59;100.00
12247;BME280;6186;52.022;4.692;2023-09-19T09:12:35;100932.84;;;17.66;100.00
12247;BME280;6186;52.022;4.692;2023-09-19T09:15:00;100934.00;;;17.78;100.00
12247;BME280;6186;52.022;4.692;2023-09-19T09:17:26;100940.09;;;17.80;100.00
12247;BME280;6186;52.022;4.692;2023-09-19T09:19:54;100928.03;;;17.90;100.00
12247;BME280;6186;52.022;4.692;2023-09-19T09:22:19;100919.63;;;17.98;100.00
12247;BME280;6186;52.022;4.692;2023-09-19T09:24:55;100928.94;;;18.37;100.00
12247;BME280;6186;52.022;4.692;2023-09-19T09:27:20;100917.94;;;18.43;100.00
12247;BME280;6186;52.022;4.692;2023-09-19T09:29:50;100916.31;;;18.41;100.00
12247;BME280;6186;52.022;4.692;2023-09-19T09:32:26;100924.44;;;18.38;100.00
12247;BME280;6186;52.022;4.692;2023-09-19T09:34:53;100929.78;;;18.38;100.00
12247;BME280;6186;52.022;4.692;2023-09-19T09:37:19;100939.75;;;18.34;100.00
12247;BME280;6186;52.022;4.692;2023-09-19T09:40:01;100932.81;;;18.32;100.00
12247;BME280;6186;52.022;4.692;2023-09-19T09:42:35;100922.16;;;18.32;100.00
12247;BME280;6186;52.022;4.692;2023-09-19T09:47:44;100909.66;;;18.32;100.00
12247;BME280;6186;52.022;4.692;2023-09-19T09:50:10;100911.94;;;18.55;100.00
12247;BME280;6186;52.022;4.692;2023-09-19T09:52:44;100921.72;;;18.86;100.00
12247;BME280;6186;52.022;4.692;2023-09-19T09:55:09;100909.91;;;19.20;100.00
12247;BME280;6186;52.022;4.692;2023-09-19T09:57:35;100916.25;;;19.33;100.00
12247;BME280;6186;52.022;4.692;2023-09-19T10:00:01;100895.88;;;19.32;100.00
12247;BME280;6186;52.022;4.692;2023-09-19T10:02:28;100914.00;;;19.41;100.00
12247;BME280;6186;52.022;4.692;2023-09-19T10:04:58;100907.38;;;19.62;100.00
12247;BME280;6186;52.022;4.692;2023-09-19T10:07:30;100907.28;;;19.78;100.00
12247;BME280;6186;52.022;4.692;2023-09-19T10:09:56;100896.88;;;20.01;100.00
12247;BME280;6186;52.022;4.692;2023-09-19T10:12:21;100894.19;;;20.01;100.00
12247;BME280;6186;52.022;4.692;2023-09-19T10:14:47;100898.66;;;20.01;100.00
12247;BME280;6186;52.022;4.692;2023-09-19T10:17:14;100902.00;;;20.04;100.00
12247;BME280;6186;52.022;4.692;2023-09-19T10:19:50;100894.19;;;19.87;100.00
12247;BME280;6186;52.022;4.692;2023-09-19T10:22:19;100878.56;;;19.81;100.00
12247;BME280;6186;52.022;4.692;2023-09-19T10:24:45;100880.66;;;19.90;100.00
12247;BME280;6186;52.022;4.692;2023-09-19T10:27:11;100881.22;;;20.09;100.00
12247;BME280;6186;52.022;4.692;2023-09-19T10:29:39;100880.44;;;20.21;100.00
12247;BME280;6186;52.022;4.692;2023-09-19T10:32:06;100868.16;;;20.19;100.00
12247;BME280;6186;52.022;4.692;2023-09-19T10:34:35;100867.06;;;20.21;100.00
12247;BME280;6186;52.022;4.692;2023-09-19T10:37:02;100868.03;;;20.34;100.00
12247;BME280;6186;52.022;4.692;2023-09-19T10:39:30;100868.63;;;20.52;100.00
12247;BME280;6186;52.022;4.692;2023-09-19T10:42:01;100869.84;;;21.00;100.00
12247;BME280;6186;52.022;4.692;2023-09-19T10:44:28;100849.56;;;21.35;100.00
12247;BME280;6186;52.022;4.692;2023-09-19T10:46:56;100854.50;;;21.41;100.00
12247;BME280;6186;52.022;4.692;2023-09-19T10:49:22;100854.50;;;21.28;100.00
12247;BME280;6186;52.022;4.692;2023-09-19T10:51:51;100872.91;;;21.08;100.00
12247;BME280;6186;52.022;4.692;2023-09-19T10:54:20;100849.13;;;20.77;100.00
12247;BME280;6186;52.022;4.692;2023-09-19T10:56:50;100855.84;;;20.43;100.00
12247;BME280;6186;52.022;4.692;2023-09-19T10:59:17;100844.91;;;20.19;100.00
12247;BME280;6186;52.022;4.692;2023-09-19T11:01:45;100859.91;;;20.22;100.00
12247;BME280;6186;52.022;4.692;2023-09-19T11:07:04;100842.47;;;20.70;100.00
12247;BME280;6186;52.022;4.692;2023-09-19T11:15:02;100835.94;;;21.00;100.00
12247;BME280;6186;52.022;4.692;2023-09-19T11:17:31;100850.97;;;21.15;100.00
12247;BME280;6186;52.022;4.692;2023-09-19T11:36:14;100826.97;;;21.26;100.00
12247;BME280;6186;52.022;4.692;2023-09-19T11:41:37;100816.88;;;20.66;100.00
12247;BME280;6186;52.022;4.692;2023-09-19T11:46:27;100822.56;;;20.34;100.00
12247;BME280;6186;52.022;4.692;2023-09-19T11:48:53;100826.69;;;20.26;100.00
12247;BME280;6186;52.022;4.692;2023-09-19T11:51:25;100835.47;;;20.14;100.00
12247;BME280;6186;52.022;4.692;2023-09-19T11:53:51;100837.31;;;19.99;100.00
12247;BME280;6186;52.022;4.692;2023-09-19T11:56:18;100823.69;;;19.90;100.00
12247;BME280;6186;52.022;4.692;2023-09-19T11:58:44;100832.38;;;19.79;100.00
12247;BME280;6186;52.022;4.692;2023-09-19T12:01:13;100825.78;;;19.70;100.00
12247;BME280;6186;52.022;4.692;2023-09-19T12:03:42;100836.19;;;19.61;100.00
12247;BME280;6186;52.022;4.692;2023-09-19T12:06:11;100835.06;;;19.65;100.00
12247;BME280;6186;52.022;4.692;2023-09-19T12:08:39;100837.56;;;19.68;100.00
12247;BME280;6186;52.022;4.692;2023-09-19T12:11:04;100842.03;;;19.67;100.00
12247;BME280;6186;52.022;4.692;2023-09-19T12:13:29;100847.47;;;19.66;100.00
12247;BME280;6186;52.022;4.692;2023-09-19T12:15:55;100842.69;;;19.71;100.00
12247;BME280;6186;52.022;4.692;2023-09-19T12:18:30;100836.75;;;19.80;100.00
12247;BME280;6186;52.022;4.692;2023-09-19T12:20:55;100817.88;;;19.83;100.00
12247;BME280;6186;52.022;4.692;2023-09-19T12:23:21;100830.16;;;19.86;100.00
12247;BME280;6186;52.022;4.692;2023-09-19T12:25:46;100810.78;;;19.96;100.00
12247;BME280;6186;52.022;4.692;2023-09-19T12:28:12;100810.41;;;20.02;100.00
12247;BME280;6186;52.022;4.692;2023-09-19T12:30:37;100831.09;;;20.13;100.00
12247;BME280;6186;52.022;4.692;2023-09-19T12:33:02;100818.66;;;20.12;100.00
12247;BME280;6186;52.022;4.692;2023-09-19T12:35:29;100820.09;;;20.17;100.00
12247;BME280;6186;52.022;4.692;2023-09-19T12:37:54;100830.28;;;20.39;100.00
12247;BME280;6186;52.022;4.692;2023-09-19T12:40:21;100852.31;;;20.42;100.00
12247;BME280;6186;52.022;4.692;2023-09-19T12:42:47;100842.69;;;20.40;100.00
12247;BME280;6186;52.022;4.692;2023-09-19T12:45:14;100833.91;;;20.38;100.00
12247;BME280;6186;52.022;4.692;2023-09-19T12:47:39;100798.41;;;20.36;100.00
12247;BME280;6186;52.022;4.692;2023-09-19T12:50:14;100831.44;;;20.35;100.00
12247;BME280;6186;52.022;4.692;2023-09-19T12:52:43;100825.78;;;20.39;100.00
12247;BME280;6186;52.022;4.692;2023-09-19T12:55:37;100819.59;;;20.51;100.00
12247;BME280;6186;52.022;4.692;2023-09-19T12:58:09;100841.19;;;20.75;100.00
12247;BME280;6186;52.022;4.692;2023-09-19T13:00:43;100830.88;;;20.96;100.00
12247;BME280;6186;52.022;4.692;2023-09-19T13:03:25;100819.56;;;21.05;100.00
12247;BME280;6186;52.022;4.692;2023-09-19T13:05:52;100836.69;;;21.02;100.00
12247;BME280;6186;52.022;4.692;2023-09-19T13:08:25;100828.59;;;20.90;100.00
12247;BME280;6186;52.022;4.692;2023-09-19T13:11:12;100832.53;;;20.72;100.00
12247;BME280;6186;52.022;4.692;2023-09-19T13:13:40;100841.47;;;20.58;100.00
12247;BME280;6186;52.022;4.692;2023-09-19T13:16:06;100844.00;;;20.47;100.00
12247;BME280;6186;52.022;4.692;2023-09-19T13:18:32;100834.00;;;20.36;100.00
12247;BME280;6186;52.022;4.692;2023-09-19T13:21:07;100831.94;;;20.27;100.00
12247;BME280;6186;52.022;4.692;2023-09-19T13:23:33;100829.56;;;20.23;100.00
12247;BME280;6186;52.022;4.692;2023-09-19T13:25:58;100821.84;;;20.18;100.00
12247;BME280;6186;52.022;4.692;2023-09-19T13:28:23;100823.72;;;20.16;100.00